Time;durP1;ratioP1;P1;durP2;ratioP2;P2;SDS_P1;SDS_P2;PMS_P1;PMS_P2;Temp;Humidity;BMP_temperature;BMP_pressure;BME280_temperature;BME280_humidity;BME280_pressure;Samples;Min_cycle;Max_cycle;Signal;HPM_P1;HPM_P2
2023/07/08 00:00:42;;;;;;;;;;;22.40;60.30;;;;;;5026636;28;20024;-76
2023/07/08 05:01:49;;;;;;;10.52;5.97;;;21.60;65.90;;;;;;5757198;23;19958;-75
2023/07/08 05:04:16;;;;;;;9.70;5.85;;;21.60;65.50;;;;;;4985251;28;20094;-75
2023/07/08 05:06:43;;;;;;;8.77;5.37;;;21.70;65.00;;;;;;4986060;28;20041;-74
2023/07/08 05:09:10;;;;;;;8.65;5.60;;;21.70;65.20;;;;;;4985370;28;20340;-75
2023/07/08 05:11:36;;;;;;;12.30;6.03;;;21.70;65.40;;;;;;4968051;28;20042;-75
2023/07/08 05:14:03;;;;;;;11.80;5.88;;;21.70;65.20;;;;;;4986090;28;20046;-75
2023/07/08 05:16:38;;;;;;;9.73;5.70;;;21.80;65.60;;;;;;4985483;28;20050;-75
2023/07/08 05:19:03;;;;;;;9.85;5.57;;;21.90;65.50;;;;;;4986006;28;20042;-75
2023/07/08 05:21:33;;;;;;;10.45;5.40;;;21.90;64.70;;;;;;4985340;28;20069;-75
2023/07/08 05:24:03;;;;;;;8.35;5.63;;;22.10;64.90;;;;;;4985430;28;20050;-74
2023/07/08 05:26:29;;;;;;;8.50;5.35;;;22.30;65.30;;;;;;4985068;28;20074;-74
2023/07/08 05:28:54;;;;;;;9.82;5.90;;;22.60;64.20;;;;;;4985736;28;20038;-76
2023/07/08 05:31:20;;;;;;;9.32;5.22;;;23.00;63.50;;;;;;4984925;28;20292;-75
2023/07/08 05:33:46;;;;;;;10.93;5.13;;;23.30;61.90;;;;;;4985280;28;20045;-74
2023/07/08 05:36:11;;;;;;;8.45;5.60;;;23.60;61.70;;;;;;4985309;28;20023;-77
2023/07/08 05:38:38;;;;;;;9.93;5.60;;;23.90;61.20;;;;;;4967660;28;20343;-76
2023/07/08 05:41:03;;;;;;;12.55;6.60;;;24.10;61.70;;;;;;4985821;28;20046;-75
2023/07/08 05:43:29;;;;;;;13.40;9.45;;;24.20;62.00;;;;;;4967906;28;20031;-74
2023/07/08 05:46:02;;;;;;;11.18;5.97;;;24.20;61.20;;;;;;4985005;28;20261;-75
2023/07/08 05:48:28;;;;;;;8.65;5.70;;;24.10;60.90;;;;;;4967700;28;20030;-75
2023/07/08 05:50:54;;;;;;;11.30;6.85;;;24.20;60.50;;;;;;4985015;28;20233;-77
2023/07/08 05:53:20;;;;;;;8.75;5.63;;;24.20;61.40;;;;;;4984561;28;20034;-76
2023/07/08 05:55:48;;;;;;;10.95;6.07;;;24.10;61.60;;;;;;4985043;28;20034;-76
2023/07/08 05:58:16;;;;;;;12.33;6.33;;;24.00;62.00;;;;;;4984784;28;20039;-76
2023/07/08 06:00:43;;;;;;;9.40;5.75;;;23.90;62.20;;;;;;4984860;28;20315;-75
2023/07/08 06:03:09;;;;;;;11.63;6.68;;;23.80;62.60;;;;;;4993997;28;20070;-76
2023/07/08 06:05:37;;;;;;;9.48;6.20;;;23.70;63.20;;;;;;5003831;28;20042;-77
2023/07/08 06:08:02;;;;;;;9.35;5.85;;;23.60;64.00;;;;;;5004489;28;20358;-77
2023/07/08 06:10:28;;;;;;;8.30;5.68;;;23.50;63.50;;;;;;5004025;28;20065;-77
2023/07/08 06:12:54;;;;;;;12.02;6.03;;;23.60;63.20;;;;;;5003871;28;20038;-76
2023/07/08 06:15:19;;;;;;;11.30;6.20;;;23.70;63.20;;;;;;4985795;28;20312;-77
2023/07/08 06:17:45;;;;;;;11.85;6.22;;;23.80;62.80;;;;;;5004278;28;20042;-77
2023/07/08 06:20:11;;;;;;;11.55;6.22;;;23.80;62.60;;;;;;5004027;28;20332;-77
2023/07/08 06:22:37;;;;;;;11.60;5.72;;;24.00;62.30;;;;;;5003529;28;20034;-76
2023/07/08 06:25:02;;;;;;;12.02;6.47;;;24.20;62.10;;;;;;5003485;28;20026;-75
2023/07/08 06:27:28;;;;;;;12.60;6.65;;;24.50;61.50;;;;;;5003414;28;20061;-77
2023/07/08 06:29:54;;;;;;;10.45;6.35;;;24.70;61.00;;;;;;5004006;28;20315;-77
2023/07/08 06:32:20;;;;;;;13.60;6.35;;;24.90;60.50;;;;;;5003580;28;20049;-76
2023/07/08 06:34:45;;;;;;;10.88;5.85;;;25.10;60.30;;;;;;5003763;28;20025;-78
2023/07/08 06:37:11;;;;;;;10.20;5.90;;;25.20;60.00;;;;;;4986322;28;20097;-76
2023/07/08 06:39:37;;;;;;;9.57;6.45;;;25.20;60.00;;;;;;5003775;28;20030;-78
2023/07/08 06:42:03;;;;;;;13.00;6.03;;;25.30;60.60;;;;;;4986749;28;20037;-80
2023/07/08 06:44:32;;;;;;;9.23;5.93;;;25.30;59.90;;;;;;4985984;28;20192;-78
2023/07/08 06:46:58;;;;;;;10.52;5.70;;;25.30;60.10;;;;;;5003745;28;20041;-77
2023/07/08 06:49:23;;;;;;;11.10;5.75;;;25.30;60.20;;;;;;5003369;28;20066;-77
2023/07/08 06:51:49;;;;;;;10.40;6.18;;;25.50;59.90;;;;;;4986375;28;20029;-78
2023/07/08 06:54:15;;;;;;;10.27;6.10;;;25.70;60.40;;;;;;4986853;28;20089;-80
2023/07/08 06:56:41;;;;;;;10.00;5.53;;;25.90;59.50;;;;;;5002931;28;20097;-75
2023/07/08 06:59:08;;;;;;;11.23;6.13;;;26.30;59.40;;;;;;5003774;28;20100;-79
2023/07/08 07:01:34;;;;;;;8.85;4.95;;;26.80;58.70;;;;;;5003120;28;20045;-80
2023/07/08 07:04:01;;;;;;;9.57;4.38;;;27.00;58.10;;;;;;4970211;28;20066;-80
2023/07/08 07:06:26;;;;;;;6.10;3.60;;;27.10;57.80;;;;;;4966553;28;20081;-75
2023/07/08 07:08:52;;;;;;;7.22;4.10;;;27.10;57.70;;;;;;4983783;28;20034;-77
2023/07/08 07:11:19;;;;;;;7.85;4.03;;;26.90;58.20;;;;;;4983949;28;20264;-78
2023/07/08 07:13:45;;;;;;;7.68;3.95;;;26.80;58.80;;;;;;4984290;28;20031;-77
2023/07/08 07:16:11;;;;;;;9.05;3.90;;;26.80;58.80;;;;;;4984346;28;20023;-83
2023/07/08 07:18:57;;;;;;;6.10;3.70;;;26.60;59.30;;;;;;4969028;28;20039;-77
2023/07/08 07:21:23;;;;;;;8.30;4.10;;;26.60;59.40;;;;;;4983356;28;20027;-77
2023/07/08 07:23:49;;;;;;;6.90;3.50;;;26.60;59.60;;;;;;4983833;28;20053;-77
2023/07/08 07:26:15;;;;;;;6.68;3.80;;;26.40;59.80;;;;;;4984518;28;20272;-76
2023/07/08 07:28:40;;;;;;;7.22;3.72;;;26.50;60.10;;;;;;4987384;28;20057;-74
2023/07/08 07:31:07;;;;;;;7.55;3.83;;;26.70;59.90;;;;;;4987866;28;20050;-77
2023/07/08 07:33:32;;;;;;;6.32;3.38;;;26.80;59.70;;;;;;4987203;28;20304;-76
2023/07/08 07:35:59;;;;;;;7.15;3.55;;;26.70;59.90;;;;;;4987856;28;20031;-77
2023/07/08 07:38:28;;;;;;;8.75;3.63;;;26.90;60.10;;;;;;4964447;28;20038;-77
2023/07/08 07:40:55;;;;;;;6.80;3.83;;;26.90;60.00;;;;;;4951428;29;20019;-80
2023/07/08 07:43:22;;;;;;;8.40;3.70;;;27.00;59.80;;;;;;4961868;28;20027;-80
2023/07/08 07:45:52;;;;;;;7.22;3.47;;;27.00;59.70;;;;;;4987568;28;20368;-77
2023/07/08 07:48:18;;;;;;;6.38;3.17;;;27.10;59.80;;;;;;4987726;28;20058;-77
2023/07/08 07:50:48;;;;;;;5.45;3.47;;;27.10;59.80;;;;;;4969611;28;20043;-77
2023/07/08 07:53:14;;;;;;;7.13;3.47;;;26.90;60.20;;;;;;4970350;28;20034;-78
2023/07/08 07:55:40;;;;;;;8.32;3.42;;;26.90;60.40;;;;;;4988384;28;20039;-76
2023/07/08 07:58:05;;;;;;;9.02;3.60;;;26.90;60.40;;;;;;4989685;28;20027;-77
2023/07/08 08:00:31;;;;;;;7.25;3.60;;;27.00;60.80;;;;;;4972079;28;20035;-77
2023/07/08 08:02:57;;;;;;;7.80;3.45;;;27.30;60.10;;;;;;4997565;28;20057;-76
2023/07/08 08:05:23;;;;;;;6.80;3.13;;;27.40;59.90;;;;;;5008084;28;20180;-79
2023/07/08 08:07:49;;;;;;;6.70;3.45;;;27.60;59.30;;;;;;5008262;28;20085;-76
2023/07/08 08:10:15;;;;;;;4.68;2.85;;;27.70;59.30;;;;;;5009196;28;20045;-76
2023/07/08 08:12:41;;;;;;;5.35;3.20;;;28.00;59.20;;;;;;4990603;28;20057;-77
2023/07/08 08:15:07;;;;;;;5.75;3.10;;;28.30;59.10;;;;;;5007589;28;20168;-77
2023/07/08 08:17:33;;;;;;;4.78;3.00;;;28.60;58.40;;;;;;5005885;28;20042;-76
2023/07/08 08:19:58;;;;;;;7.18;2.92;;;28.70;57.30;;;;;;5006446;28;20097;-78
2023/07/08 08:22:24;;;;;;;6.25;3.10;;;28.60;57.60;;;;;;5005879;28;20085;-78
2023/07/08 08:24:50;;;;;;;5.72;2.92;;;28.50;57.40;;;;;;5006089;28;20348;-79
2023/07/08 08:27:16;;;;;;;7.88;3.17;;;28.40;57.90;;;;;;5006353;28;20384;-82
2023/07/08 08:29:41;;;;;;;5.38;2.97;;;28.50;58.20;;;;;;5005436;28;20054;-77
2023/07/08 08:32:07;;;;;;;5.72;2.60;;;28.30;57.60;;;;;;5006036;28;20061;-77
2023/07/08 08:34:34;;;;;;;5.35;2.67;;;28.40;58.20;;;;;;5005364;28;20033;-77
2023/07/08 08:36:59;;;;;;;7.55;2.85;;;28.60;57.70;;;;;;5005366;28;20026;-78
2023/07/08 08:39:29;;;;;;;5.32;2.67;;;28.70;57.10;;;;;;4988506;28;20041;-77
2023/07/08 08:41:56;;;;;;;5.22;2.60;;;28.90;56.50;;;;;;4986391;28;20023;-76
2023/07/08 08:44:34;;;;;;;5.35;2.67;;;29.10;56.90;;;;;;4986451;28;20029;-77
2023/07/08 08:47:31;;;;;;;5.93;2.65;;;29.00;56.50;;;;;;4995096;28;20038;-77
2023/07/08 08:50:02;;;;;;;4.80;2.45;;;29.10;56.10;;;;;;5005975;28;20041;-80
2023/07/08 08:52:28;;;;;;;6.28;2.53;;;29.10;56.30;;;;;;5005429;28;20042;-76
2023/07/08 08:54:54;;;;;;;5.60;2.00;;;29.10;56.70;;;;;;5006026;28;20063;-78
2023/07/08 08:57:52;;;;;;;4.03;2.05;;;29.00;56.60;;;;;;5005730;28;20316;-76
2023/07/08 09:00:28;;;;;;;4.28;2.10;;;29.20;56.20;;;;;;4972420;28;20072;-77
2023/07/08 09:03:07;;;;;;;5.05;2.15;;;29.30;55.70;;;;;;5005252;28;20109;-76
2023/07/08 09:05:33;;;;;;;5.50;1.70;;;29.30;55.40;;;;;;5005004;28;20335;-78
2023/07/08 09:08:03;;;;;;;4.60;1.90;;;29.30;55.40;;;;;;4988686;28;20026;-74
2023/07/08 09:10:35;;;;;;;6.65;2.47;;;29.20;55.40;;;;;;5004683;28;20274;-77
2023/07/08 09:13:04;;;;;;;3.80;2.08;;;29.00;55.50;;;;;;5005431;28;20084;-75
2023/07/08 09:15:32;;;;;;;5.40;2.00;;;29.00;56.00;;;;;;5004696;28;20081;-76
2023/07/08 09:18:14;;;;;;;6.00;2.25;;;29.20;55.50;;;;;;4971831;28;20031;-74
2023/07/08 09:20:41;;;;;;;3.55;1.65;;;29.20;55.40;;;;;;5004422;28;20040;-73
2023/07/08 09:23:28;;;;;;;4.68;1.95;;;29.30;55.30;;;;;;5005072;28;20045;-78
2023/07/08 09:26:07;;;;;;;3.50;1.75;;;29.30;55.40;;;;;;4987878;28;20216;-78
2023/07/08 09:28:41;;;;;;;3.80;1.88;;;29.30;55.30;;;;;;5004699;28;20158;-79
2023/07/08 09:31:16;;;;;;;3.85;1.92;;;29.50;55.40;;;;;;4987786;28;20312;-80
2023/07/08 09:33:42;;;;;;;4.05;1.70;;;29.40;54.60;;;;;;4970768;28;20056;-75
2023/07/08 09:36:24;;;;;;;3.88;1.48;;;29.40;54.80;;;;;;5004754;28;20300;-76
2023/07/08 09:38:51;;;;;;;5.10;1.85;;;29.60;54.90;;;;;;5003760;28;20050;-78
2023/07/08 09:41:35;;;;;;;5.68;2.00;;;29.80;54.80;;;;;;5004608;28;20018;-73
2023/07/08 09:44:13;;;;;;;4.63;1.80;;;29.90;55.00;;;;;;5004824;28;20026;-77
2023/07/08 09:46:38;;;;;;;;;;;30.20;54.90;;;;;;5004336;28;20034;-75
2023/07/08 09:49:18;;;;;;;6.53;2.10;;;30.40;54.90;;;;;;5003769;28;20020;-77
2023/07/08 09:51:45;;;;;;;5.13;2.35;;;30.40;54.70;;;;;;4986726;28;20039;-77
2023/07/08 09:54:11;;;;;;;4.55;2.42;;;30.60;54.70;;;;;;5005829;28;20053;-76
2023/07/08 09:56:42;;;;;;;4.13;2.22;;;30.40;54.60;;;;;;4986450;28;20018;-73
2023/07/08 09:59:14;;;;;;;5.20;2.95;;;30.40;55.10;;;;;;5004256;28;20092;-75
2023/07/08 10:01:42;;;;;;;5.70;2.63;;;30.50;54.70;;;;;;5003742;28;20138;-78
2023/07/08 10:04:11;;;;;;;5.18;2.40;;;30.50;54.90;;;;;;4953382;28;20233;-77
2023/07/08 10:06:37;;;;;;;4.22;2.22;;;30.40;54.20;;;;;;4984882;28;20027;-79
2023/07/08 10:09:18;;;;;;;4.95;2.25;;;30.30;54.30;;;;;;4984396;28;20045;-80
2023/07/08 10:11:54;;;;;;;4.25;1.73;;;30.50;54.00;;;;;;4983926;28;20086;-74
2023/07/08 10:14:41;;;;;;;4.43;2.08;;;30.60;52.90;;;;;;4984525;28;20027;-76
2023/07/08 10:17:14;;;;;;;14.02;3.95;;;30.70;53.70;;;;;;4963291;28;20303;-73
2023/07/08 10:19:40;;;;;;;8.07;2.92;;;30.80;54.70;;;;;;4983865;28;20328;-76
2023/07/08 10:22:33;;;;;;;6.18;2.90;;;30.60;54.50;;;;;;4984572;28;20070;-76
2023/07/08 10:25:10;;;;;;;8.80;3.75;;;30.40;55.20;;;;;;4984545;28;20110;-78
2023/07/08 10:27:57;;;;;;;6.78;3.40;;;30.20;55.90;;;;;;4983674;28;20043;-76
2023/07/08 10:30:43;;;;;;;9.18;4.32;;;30.20;56.10;;;;;;4979165;28;20061;-73
2023/07/08 10:33:23;;;;;;;7.90;3.65;;;30.00;56.60;;;;;;4984446;28;20031;-74
2023/07/08 10:36:18;;;;;;;9.23;3.65;;;30.10;56.50;;;;;;4983647;28;20035;-77
2023/07/08 10:39:18;;;;;;;6.47;3.50;;;30.20;56.40;;;;;;4983635;28;20101;-76
2023/07/08 10:42:04;;;;;;;4.97;3.00;;;30.30;56.20;;;;;;4983746;28;20026;-75
2023/07/08 10:45:03;;;;;;;6.00;2.80;;;30.30;55.70;;;;;;4984583;28;20077;-78
2023/07/08 10:47:56;;;;;;;4.47;2.30;;;30.20;55.70;;;;;;4984016;28;20073;-74
2023/07/08 10:50:24;;;;;;;6.22;2.47;;;30.10;55.90;;;;;;4967263;28;20212;-76
2023/07/08 10:53:06;;;;;;;5.10;2.33;;;30.10;56.00;;;;;;4983729;28;20027;-77
2023/07/08 10:55:55;;;;;;;8.23;3.05;;;30.00;56.20;;;;;;4984006;28;20269;-75
2023/07/08 10:58:41;;;;;;;7.13;2.83;;;30.20;55.80;;;;;;4983971;28;20074;-75
2023/07/08 11:01:33;;;;;;;5.70;2.58;;;30.10;55.40;;;;;;4983505;28;20609;-76
2023/07/08 11:04:34;;;;;;;6.63;2.63;;;30.20;55.50;;;;;;4989172;28;20051;-74
2023/07/08 11:07:11;;;;;;;5.30;2.40;;;30.30;55.40;;;;;;4975201;28;20042;-73
2023/07/08 11:09:56;;;;;;;3.80;1.85;;;30.60;54.80;;;;;;5002918;28;20070;-72
2023/07/08 11:12:34;;;;;;;5.10;2.20;;;30.80;54.20;;;;;;5003235;28;20089;-74
2023/07/08 11:15:12;;;;;;;;;;;31.00;54.10;;;;;;5003851;28;20089;-74
2023/07/08 11:17:47;;;;;;;3.97;1.85;;;31.20;53.80;;;;;;5002902;28;19914;-76
2023/07/08 11:20:50;;;;;;;4.65;1.75;;;31.40;53.60;;;;;;4966102;28;20035;-77
2023/07/08 11:23:33;;;;;;;6.80;1.85;;;31.70;53.20;;;;;;4983942;28;20030;-77
2023/07/08 11:26:19;;;;;;;5.20;2.00;;;32.10;52.80;;;;;;4983757;28;20391;-77
2023/07/08 11:28:46;;;;;;;4.65;1.80;;;32.50;52.20;;;;;;4999351;28;20034;-77
2023/07/08 11:31:13;;;;;;;5.93;2.45;;;33.20;51.40;;;;;;5003295;28;20034;-75
2023/07/08 11:33:41;;;;;;;4.25;2.30;;;33.70;51.00;;;;;;5002652;28;20324;-75
2023/07/08 11:36:07;;;;;;;4.95;1.90;;;34.10;50.30;;;;;;5003438;28;20037;-75
2023/07/08 11:38:38;;;;;;;5.80;2.22;;;34.00;50.30;;;;;;4985890;28;20081;-77
2023/07/08 11:41:16;;;;;;;4.55;2.13;;;34.10;50.40;;;;;;5003555;28;20038;-76
2023/07/08 11:43:45;;;;;;;3.70;2.05;;;34.60;49.90;;;;;;5002493;28;20058;-78
2023/07/08 11:46:18;;;;;;;4.93;2.30;;;34.10;49.90;;;;;;5002982;28;20247;-75
2023/07/08 11:48:51;;;;;;;5.80;2.55;;;34.20;50.00;;;;;;5002103;28;20042;-76
2023/07/08 11:51:22;;;;;;;4.15;1.95;;;34.80;49.60;;;;;;5002852;28;20045;-76
2023/07/08 11:53:51;;;;;;;3.75;1.70;;;35.40;49.10;;;;;;5002386;28;20320;-74
2023/07/08 11:56:22;;;;;;;3.92;1.95;;;36.30;48.20;;;;;;5002670;28;20090;-76
2023/07/08 11:58:59;;;;;;;8.15;2.45;;;37.20;47.50;;;;;;5002487;28;20038;-78
2023/07/08 12:01:37;;;;;;;5.80;1.92;;;38.60;46.50;;;;;;4986030;28;20094;-78
2023/07/08 12:04:05;;;;;;;3.70;1.70;;;39.60;45.30;;;;;;5003084;28;20050;-77
2023/07/08 12:06:31;;;;;;;5.60;1.92;;;39.90;44.70;;;;;;5003410;28;20030;-77
2023/07/08 12:08:59;;;;;;;3.00;1.63;;;40.30;44.20;;;;;;5003045;28;20096;-78
2023/07/08 12:11:32;;;;;;;3.42;1.80;;;40.00;44.10;;;;;;4969360;28;20038;-76
2023/07/08 12:14:00;;;;;;;7.00;1.90;;;40.60;44.30;;;;;;5005407;28;20033;-77
2023/07/08 12:16:29;;;;;;;4.82;2.30;;;40.80;43.70;;;;;;5006637;28;20039;-75
2023/07/08 12:18:56;;;;;;;4.78;2.22;;;40.80;43.60;;;;;;5005370;28;20182;-77
2023/07/08 12:21:25;;;;;;;3.70;1.70;;;41.70;43.00;;;;;;5006386;28;20045;-75
2023/07/08 12:23:51;;;;;;;3.47;1.85;;;41.50;43.30;;;;;;5005489;28;20303;-77
2023/07/08 12:26:16;;;;;;;3.58;1.67;;;42.00;42.40;;;;;;5006160;28;20034;-76
2023/07/08 12:28:43;;;;;;;4.55;1.90;;;42.50;42.60;;;;;;5005388;28;20042;-77
2023/07/08 12:31:16;;;;;;;5.90;2.00;;;43.30;42.40;;;;;;5006191;28;20044;-77
2023/07/08 12:33:43;;;;;;;3.80;1.90;;;44.20;41.80;;;;;;5005352;28;20030;-77
2023/07/08 12:36:11;;;;;;;3.25;1.83;;;44.70;41.10;;;;;;5006116;28;20046;-77
2023/07/08 12:38:41;;;;;;;2.55;1.50;;;44.80;40.90;;;;;;5005404;28;20049;-78
2023/07/08 12:41:25;;;;;;;3.30;1.60;;;44.50;40.70;;;;;;4988880;28;20030;-76
2023/07/08 12:43:52;;;;;;;4.90;2.40;;;44.40;41.10;;;;;;5005523;28;20057;-77
2023/07/08 12:46:20;;;;;;;3.65;1.80;;;44.80;40.40;;;;;;5005966;28;20041;-76
2023/07/08 12:48:46;;;;;;;2.88;1.60;;;45.60;40.60;;;;;;5005298;28;20032;-77
2023/07/08 12:51:20;;;;;;;3.93;1.57;;;45.70;40.20;;;;;;5005684;28;20201;-77
2023/07/08 12:53:47;;;;;;;3.13;1.40;;;46.40;40.00;;;;;;4999342;28;20038;-76
2023/07/08 12:56:12;;;;;;;4.97;1.83;;;47.00;39.20;;;;;;4968672;28;20031;-75
2023/07/08 12:58:41;;;;;;;2.70;1.40;;;47.00;39.20;;;;;;4986198;28;20034;-73
2023/07/08 13:01:08;;;;;;;3.35;1.50;;;46.90;39.20;;;;;;4986101;28;20046;-74
2023/07/08 13:03:37;;;;;;;3.42;1.63;;;46.60;39.20;;;;;;4957680;28;20087;-73
2023/07/08 13:06:04;;;;;;;2.78;1.60;;;47.00;39.20;;;;;;4965984;29;20238;-73
2023/07/08 13:08:34;;;;;;;3.05;1.70;;;47.50;38.90;;;;;;4980011;28;20073;-73
2023/07/08 13:11:03;;;;;;;4.03;1.73;;;47.10;38.60;;;;;;4985068;28;20159;-72
2023/07/08 13:13:38;;;;;;;4.25;1.80;;;44.90;38.80;;;;;;4985950;28;20034;-72
2023/07/08 13:16:04;;;;;;;4.22;2.00;;;45.80;39.50;;;;;;4965939;29;20098;-73
2023/07/08 13:18:35;;;;;;;4.88;1.33;;;46.60;39.20;;;;;;4966578;29;20034;-74
2023/07/08 13:21:04;;;;;;;3.80;2.53;;;47.70;38.50;;;;;;4965774;29;20046;-75
2023/07/08 13:23:30;;;;;;;5.45;4.28;;;48.30;38.10;;;;;;4948640;29;20046;-73
2023/07/08 13:25:56;;;;;;;3.10;1.70;;;47.00;38.30;;;;;;4965328;29;20061;-75
2023/07/08 13:28:39;;;;;;;4.00;1.67;;;46.30;38.80;;;;;;4966358;29;20023;-75
2023/07/08 13:31:37;;;;;;;3.47;1.70;;;46.10;38.60;;;;;;4965960;29;20035;-75
2023/07/08 13:34:15;;;;;;;2.85;1.40;;;45.70;38.90;;;;;;4954847;28;20053;-75
2023/07/08 13:36:44;;;;;;;2.55;1.48;;;46.80;38.20;;;;;;4985122;28;20324;-74
2023/07/08 13:39:27;;;;;;;3.17;1.50;;;47.30;38.20;;;;;;4984996;28;20030;-74
2023/07/08 13:41:53;;;;;;;5.53;1.80;;;47.50;38.10;;;;;;4984721;28;20031;-76
2023/07/08 13:44:19;;;;;;;3.85;1.35;;;47.20;38.00;;;;;;4985100;28;20023;-72
2023/07/08 13:46:50;;;;;;;5.23;1.60;;;46.60;38.40;;;;;;4984866;28;20038;-74
2023/07/08 13:49:33;;;;;;;4.65;1.80;;;46.90;37.50;;;;;;4985029;28;20043;-74
2023/07/08 13:52:08;;;;;;;2.78;1.30;;;48.00;37.50;;;;;;4984559;28;20101;-74
2023/07/08 13:54:40;;;;;;;3.28;1.40;;;48.70;37.20;;;;;;4985151;28;20094;-74
2023/07/08 13:57:11;;;;;;;5.63;1.40;;;48.80;36.90;;;;;;4967157;28;20041;-75
2023/07/08 13:59:37;;;;;;;2.33;1.50;;;49.60;36.80;;;;;;4985207;28;20054;-74
2023/07/08 14:02:18;;;;;;;2.63;1.50;;;49.20;36.40;;;;;;4984238;28;20407;-74
2023/07/08 14:04:44;;;;;;;4.45;1.50;;;46.90;37.00;;;;;;4984430;28;20081;-74
2023/07/08 14:07:23;;;;;;;3.42;1.60;;;44.00;38.30;;;;;;4984843;28;20050;-73
2023/07/08 14:09:49;;;;;;;3.85;1.83;;;41.90;40.00;;;;;;4984216;28;20089;-73
2023/07/08 14:12:15;;;;;;;3.75;1.33;;;40.50;41.30;;;;;;4984815;28;20023;-72
2023/07/08 14:14:41;;;;;;;4.90;1.77;;;41.90;41.40;;;;;;4984955;28;20312;-73
2023/07/08 14:17:12;;;;;;;3.15;1.60;;;43.80;39.80;;;;;;4983788;28;20309;-74
2023/07/08 14:19:38;;;;;;;4.07;1.65;;;42.90;39.60;;;;;;4984379;28;20047;-74
2023/07/08 14:22:19;;;;;;;4.25;1.70;;;43.10;39.70;;;;;;4983733;28;20102;-73
2023/07/08 14:24:44;;;;;;;5.93;2.25;;;42.80;40.00;;;;;;4984669;28;20043;-74
2023/07/08 14:27:12;;;;;;;4.03;1.55;;;44.20;39.70;;;;;;4984706;28;20045;-74
2023/07/08 14:29:38;;;;;;;3.63;1.52;;;44.70;39.10;;;;;;4984173;28;20081;-73
2023/07/08 14:32:08;;;;;;;3.97;1.70;;;44.20;39.10;;;;;;4983933;28;20046;-73
2023/07/08 14:34:34;;;;;;;4.32;1.77;;;45.30;39.00;;;;;;4984448;28;20041;-74
2023/07/08 14:37:00;;;;;;;4.75;1.48;;;46.10;38.40;;;;;;4983587;28;20027;-73
2023/07/08 14:39:26;;;;;;;3.63;1.63;;;46.80;38.00;;;;;;4984470;28;20101;-73
2023/07/08 14:41:51;;;;;;;2.80;1.70;;;48.80;38.00;;;;;;4983627;28;20035;-74
2023/07/08 14:44:33;;;;;;;4.03;2.10;;;49.30;36.90;;;;;;4984169;28;20089;-73
2023/07/08 14:46:59;;;;;;;4.60;1.55;;;48.90;35.90;;;;;;4966685;28;20053;-75
2023/07/08 14:49:28;;;;;;;4.60;2.95;;;49.60;36.10;;;;;;4984019;28;20035;-75
2023/07/08 14:51:53;;;;;;;5.53;3.97;;;48.90;36.60;;;;;;4983883;28;20026;-74
2023/07/08 14:54:20;;;;;;;4.30;1.67;;;46.90;37.40;;;;;;4984078;28;20312;-74
2023/07/08 14:56:48;;;;;;;3.17;1.70;;;45.10;38.60;;;;;;4984011;28;20035;-73
2023/07/08 14:59:17;;;;;;;4.25;1.90;;;44.00;39.60;;;;;;4983972;28;20069;-73
2023/07/08 15:01:43;;;;;;;3.90;1.88;;;43.60;39.90;;;;;;4983829;28;20031;-73
2023/07/08 15:04:12;;;;;;;3.17;1.50;;;43.80;40.20;;;;;;4998792;28;20054;-74
2023/07/08 15:06:37;;;;;;;4.00;1.70;;;45.20;39.20;;;;;;5003506;28;20240;-73
2023/07/08 15:09:05;;;;;;;4.00;1.42;;;47.10;38.40;;;;;;5002980;28;20355;-74
2023/07/08 15:11:31;;;;;;;2.80;1.70;;;48.20;38.00;;;;;;5003328;28;20054;-76
2023/07/08 15:13:58;;;;;;;4.53;1.67;;;47.10;37.60;;;;;;5002599;28;20029;-74
2023/07/08 15:16:23;;;;;;;4.25;2.03;;;45.50;38.40;;;;;;5003259;28;20034;-73
2023/07/08 15:18:49;;;;;;;3.08;1.50;;;46.10;38.50;;;;;;5003047;28;20034;-74
2023/07/08 15:21:15;;;;;;;3.85;1.80;;;47.30;38.30;;;;;;5003583;28;20034;-74
2023/07/08 15:23:42;;;;;;;3.83;1.40;;;49.30;37.40;;;;;;5003418;28;20030;-75
2023/07/08 15:26:12;;;;;;;3.25;1.63;;;50.60;36.90;;;;;;5003126;28;20034;-74
2023/07/08 15:28:48;;;;;;;2.50;1.60;;;52.20;36.20;;;;;;5003495;28;20224;-74
2023/07/08 15:31:15;;;;;;;;;;;51.40;35.70;;;;;;5003858;28;20042;-73
2023/07/08 15:33:42;;;;;;;3.63;1.58;;;52.90;36.00;;;;;;5002830;28;19908;-73
2023/07/08 15:36:12;;;;;;;5.13;2.60;;;51.80;35.50;;;;;;5002835;28;20251;-73
2023/07/08 15:38:40;;;;;;;4.80;3.45;;;50.60;36.00;;;;;;5003227;28;20061;-73
2023/07/08 15:41:13;;;;;;;2.58;1.60;;;48.30;36.90;;;;;;5002782;28;20054;-73
2023/07/08 15:43:39;;;;;;;6.28;2.72;;;45.70;38.30;;;;;;5003098;28;20335;-73
2023/07/08 15:46:07;;;;;;;5.72;3.50;;;43.70;39.50;;;;;;5002392;28;20119;-73
2023/07/08 15:48:32;;;;;;;3.80;2.05;;;42.00;40.70;;;;;;5005625;28;20038;-74
2023/07/08 15:50:58;;;;;;;3.33;1.90;;;41.60;41.30;;;;;;5006688;28;20025;-75
2023/07/08 15:53:24;;;;;;;2.83;1.70;;;41.50;41.10;;;;;;5006926;28;20034;-74
2023/07/08 15:55:50;;;;;;;3.72;2.03;;;40.90;41.40;;;;;;4999643;28;20191;-75
2023/07/08 15:58:27;;;;;;;4.03;2.00;;;40.10;42.30;;;;;;5006694;28;20042;-74
2023/07/08 16:00:54;;;;;;;3.70;1.60;;;41.20;42.10;;;;;;4986930;28;20094;-75
2023/07/08 16:03:26;;;;;;;3.85;1.52;;;43.90;40.70;;;;;;4967132;28;20081;-75
2023/07/08 16:05:53;;;;;;;3.17;1.75;;;46.20;39.20;;;;;;4986770;28;20045;-76
2023/07/08 16:08:19;;;;;;;3.42;1.50;;;48.00;38.10;;;;;;4987029;28;20093;-77
2023/07/08 16:10:57;;;;;;;6.70;1.90;;;47.60;37.30;;;;;;4987145;28;20035;-74
2023/07/08 16:13:27;;;;;;;4.88;1.60;;;48.20;37.60;;;;;;4986959;28;20040;-75
2023/07/08 16:15:54;;;;;;;5.55;2.42;;;49.20;37.00;;;;;;4986720;28;20045;-76
2023/07/08 16:18:20;;;;;;;4.78;1.65;;;49.90;36.60;;;;;;4987146;28;20022;-74
2023/07/08 16:20:46;;;;;;;4.30;1.55;;;50.90;36.30;;;;;;4987253;28;20335;-75
2023/07/08 16:23:12;;;;;;;5.20;1.55;;;51.20;35.80;;;;;;4986462;28;20509;-76
2023/07/08 16:25:49;;;;;;;4.00;1.40;;;51.00;35.90;;;;;;4987085;28;20039;-77
2023/07/08 16:28:45;;;;;;;3.80;1.52;;;51.20;36.20;;;;;;4986310;28;20069;-75
2023/07/08 16:31:12;;;;;;;;;;;51.30;35.90;;;;;;4985534;28;20051;-76
2023/07/08 16:33:37;;;;;;;2.67;1.13;;;51.70;35.70;;;;;;4986562;28;19913;-76
2023/07/08 16:36:04;;;;;;;4.28;1.70;;;52.30;35.90;;;;;;4985890;28;20022;-74
2023/07/08 16:38:29;;;;;;;3.63;1.80;;;51.70;35.70;;;;;;4986523;28;20042;-75
2023/07/08 16:40:55;;;;;;;7.10;1.80;;;50.50;35.70;;;;;;4986234;28;20046;-76
2023/07/08 16:43:26;;;;;;;3.77;1.77;;;48.30;36.50;;;;;;4986600;28;20023;-74
2023/07/08 16:45:51;;;;;;;4.70;2.25;;;47.10;37.80;;;;;;4986550;28;20057;-75
2023/07/08 16:48:18;;;;;;;2.80;1.48;;;47.30;37.50;;;;;;4985658;28;20041;-77
2023/07/08 16:50:44;;;;;;;5.93;2.97;;;47.70;37.30;;;;;;4986690;28;20028;-76
2023/07/08 16:53:12;;;;;;;4.38;2.40;;;48.80;36.90;;;;;;4986131;28;20047;-77
2023/07/08 16:55:38;;;;;;;3.15;1.40;;;48.10;36.80;;;;;;4986575;28;20069;-78
2023/07/08 16:58:03;;;;;;;3.10;1.80;;;47.10;37.10;;;;;;4985442;28;20089;-77
2023/07/08 17:00:30;;;;;;;3.17;1.88;;;44.90;38.10;;;;;;4985747;28;20098;-77
2023/07/08 17:02:57;;;;;;;4.95;1.63;;;43.90;39.00;;;;;;4990877;28;20046;-75
2023/07/08 17:05:28;;;;;;;3.70;1.90;;;43.10;39.50;;;;;;5005610;28;20045;-76
2023/07/08 17:07:54;;;;;;;3.35;1.75;;;42.30;40.00;;;;;;5005636;28;20031;-74
2023/07/08 17:10:20;;;;;;;4.00;2.38;;;42.80;39.60;;;;;;5005364;28;20156;-74
2023/07/08 17:12:46;;;;;;;7.05;4.20;;;43.50;39.40;;;;;;5005019;28;20050;-76
2023/07/08 17:15:14;;;;;;;5.32;2.20;;;45.20;39.10;;;;;;5004949;28;20045;-77
2023/07/08 17:17:45;;;;;;;4.30;1.90;;;46.20;38.50;;;;;;5004829;28;20216;-76
2023/07/08 17:20:23;;;;;;;3.67;1.70;;;46.90;37.70;;;;;;5004651;28;20047;-75
2023/07/08 17:22:49;;;;;;;3.45;1.85;;;47.30;37.50;;;;;;5005280;28;20038;-75
2023/07/08 17:25:25;;;;;;;3.08;1.63;;;47.30;37.40;;;;;;4987026;28;20596;-75
2023/07/08 17:27:57;;;;;;;3.75;1.90;;;47.00;37.70;;;;;;4987559;28;20034;-74
2023/07/08 17:30:23;;;;;;;6.35;2.65;;;46.50;37.70;;;;;;5004673;28;20303;-76
2023/07/08 17:32:54;;;;;;;4.95;2.38;;;46.50;37.70;;;;;;5004628;28;20041;-75
2023/07/08 17:35:21;;;;;;;3.80;1.90;;;46.80;37.70;;;;;;5004115;28;20061;-74
2023/07/08 17:37:47;;;;;;;4.15;2.03;;;46.70;37.90;;;;;;5001508;28;20057;-77
2023/07/08 17:40:14;;;;;;;5.15;1.70;;;46.90;37.70;;;;;;5004339;28;20025;-75
2023/07/08 17:42:39;;;;;;;3.83;2.05;;;46.30;37.80;;;;;;5004749;28;20034;-74
2023/07/08 17:45:07;;;;;;;3.30;1.60;;;46.40;37.90;;;;;;5004090;28;20274;-75
2023/07/08 17:47:33;;;;;;;4.47;1.92;;;46.40;38.20;;;;;;5004506;28;20046;-76
2023/07/08 17:49:58;;;;;;;3.83;1.65;;;46.50;38.30;;;;;;5003931;28;20018;-74
2023/07/08 17:52:24;;;;;;;7.60;6.68;;;46.40;38.20;;;;;;5004576;28;20057;-75
2023/07/08 17:54:50;;;;;;;2.90;1.52;;;45.80;38.30;;;;;;4987592;28;20072;-75
2023/07/08 17:57:16;;;;;;;3.63;1.80;;;45.80;38.60;;;;;;4987302;28;20038;-74
2023/07/08 17:59:42;;;;;;;3.95;2.10;;;45.60;38.40;;;;;;5004197;28;20046;-74
2023/07/08 18:02:15;;;;;;;3.70;1.95;;;45.30;38.60;;;;;;5003799;28;20041;-76